sensor_id;sensor_type;location;lat;lon;timestamp;pressure;altitude;pressure_sealevel;temperature;humidity
36284;BME280;56085;48.910;9.478;2022-12-10T00:01:35;96981.31;;;0.54;93.79
36284;BME280;56085;48.910;9.478;2022-12-10T00:04:00;96984.34;;;0.52;93.80
36284;BME280;56085;48.910;9.478;2022-12-10T00:06:27;96985.94;;;0.54;93.60
36284;BME280;56085;48.910;9.478;2022-12-10T00:08:53;96984.03;;;0.54;93.34
36284;BME280;56085;48.910;9.478;2022-12-10T00:11:19;96985.16;;;0.53;93.39
36284;BME280;56085;48.910;9.478;2022-12-10T00:13:44;96989.47;;;0.54;93.48
36284;BME280;56085;48.910;9.478;2022-12-10T00:16:11;96992.81;;;0.51;93.10
36284;BME280;56085;48.910;9.478;2022-12-10T00:18:36;96989.66;;;0.49;93.14
36284;BME280;56085;48.910;9.478;2022-12-10T00:21:05;96986.94;;;0.49;92.96
36284;BME280;56085;48.910;9.478;2022-12-10T00:23:31;96986.28;;;0.52;92.77
36284;BME280;56085;48.910;9.478;2022-12-10T00:28:52;96986.59;;;0.50;93.15
36284;BME280;56085;48.910;9.478;2022-12-10T00:31:19;96984.22;;;0.49;93.17
36284;BME280;56085;48.910;9.478;2022-12-10T00:33:44;96977.31;;;0.51;92.88
36284;BME280;56085;48.910;9.478;2022-12-10T00:36:11;96975.59;;;0.47;92.63
36284;BME280;56085;48.910;9.478;2022-12-10T00:38:36;96973.81;;;0.42;93.02
36284;BME280;56085;48.910;9.478;2022-12-10T00:41:02;96974.44;;;0.48;92.78
36284;BME280;56085;48.910;9.478;2022-12-10T00:43:28;96975.59;;;0.47;92.88
36284;BME280;56085;48.910;9.478;2022-12-10T00:45:53;96978.31;;;0.47;92.98
36284;BME280;56085;48.910;9.478;2022-12-10T00:48:18;96972.22;;;0.50;92.74
36284;BME280;56085;48.910;9.478;2022-12-10T00:50:44;96969.81;;;0.48;92.80
36284;BME280;56085;48.910;9.478;2022-12-10T00:53:09;96966.78;;;0.50;92.84
36284;BME280;56085;48.910;9.478;2022-12-10T00:55:34;96965.16;;;0.49;92.73
36284;BME280;56085;48.910;9.478;2022-12-10T00:57:59;96971.41;;;0.49;92.81
36284;BME280;56085;48.910;9.478;2022-12-10T01:00:24;96971.06;;;0.51;92.52
36284;BME280;56085;48.910;9.478;2022-12-10T01:02:50;96969.50;;;0.50;92.57
36284;BME280;56085;48.910;9.478;2022-12-10T01:05:15;96980.22;;;0.46;92.74
36284;BME280;56085;48.910;9.478;2022-12-10T01:07:40;96987.72;;;0.49;92.80
36284;BME280;56085;48.910;9.478;2022-12-10T01:10:05;96984.88;;;0.46;93.00
36284;BME280;56085;48.910;9.478;2022-12-10T01:12:31;96987.59;;;0.46;92.85
36284;BME280;56085;48.910;9.478;2022-12-10T01:14:56;96992.38;;;0.49;92.98
36284;BME280;56085;48.910;9.478;2022-12-10T01:17:21;97007.72;;;0.45;92.72
36284;BME280;56085;48.910;9.478;2022-12-10T01:19:46;96998.47;;;0.46;93.04
36284;BME280;56085;48.910;9.478;2022-12-10T01:22:12;97007.09;;;0.48;92.81
36284;BME280;56085;48.910;9.478;2022-12-10T01:24:37;97006.28;;;0.47;92.66
36284;BME280;56085;48.910;9.478;2022-12-10T01:27:02;97012.84;;;0.46;92.47
36284;BME280;56085;48.910;9.478;2022-12-10T01:29:28;97023.25;;;0.44;92.60
36284;BME280;56085;48.910;9.478;2022-12-10T01:31:54;97027.88;;;0.44;92.61
36284;BME280;56085;48.910;9.478;2022-12-10T01:34:20;97025.50;;;0.42;92.55
36284;BME280;56085;48.910;9.478;2022-12-10T01:36:48;97034.94;;;0.45;92.58
36284;BME280;56085;48.910;9.478;2022-12-10T01:39:14;97029.03;;;0.43;92.49
36284;BME280;56085;48.910;9.478;2022-12-10T01:41:41;97036.69;;;0.41;92.26
36284;BME280;56085;48.910;9.478;2022-12-10T01:46:39;97044.84;;;0.41;92.28
36284;BME280;56085;48.910;9.478;2022-12-10T01:49:05;97037.84;;;0.40;92.49
36284;BME280;56085;48.910;9.478;2022-12-10T01:51:33;97035.91;;;0.40;91.85
36284;BME280;56085;48.910;9.478;2022-12-10T01:53:59;97039.09;;;0.42;92.00
36284;BME280;56085;48.910;9.478;2022-12-10T01:56:25;97048.84;;;0.43;91.88
36284;BME280;56085;48.910;9.478;2022-12-10T01:58:53;97043.41;;;0.43;92.21
36284;BME280;56085;48.910;9.478;2022-12-10T02:03:48;97042.13;;;0.41;91.92
36284;BME280;56085;48.910;9.478;2022-12-10T02:06:28;97045.69;;;0.41;91.83
36284;BME280;56085;48.910;9.478;2022-12-10T02:09:04;97052.22;;;0.40;91.92
36284;BME280;56085;48.910;9.478;2022-12-10T02:11:44;97046.78;;;0.40;91.97
36284;BME280;56085;48.910;9.478;2022-12-10T02:14:16;97046.66;;;0.37;92.01
36284;BME280;56085;48.910;9.478;2022-12-10T02:16:56;97044.06;;;0.40;92.47
36284;BME280;56085;48.910;9.478;2022-12-10T02:21:47;97043.59;;;0.38;92.32
36284;BME280;56085;48.910;9.478;2022-12-10T02:24:15;97033.53;;;0.39;92.65
36284;BME280;56085;48.910;9.478;2022-12-10T02:29:26;97028.88;;;0.39;92.46
36284;BME280;56085;48.910;9.478;2022-12-10T02:31:53;97026.16;;;0.39;92.99
36284;BME280;56085;48.910;9.478;2022-12-10T02:34:20;97023.28;;;0.36;92.93
36284;BME280;56085;48.910;9.478;2022-12-10T02:36:47;97023.63;;;0.34;92.71
36284;BME280;56085;48.910;9.478;2022-12-10T02:39:15;97018.97;;;0.34;92.75
36284;BME280;56085;48.910;9.478;2022-12-10T02:41:43;97020.09;;;0.33;92.50
36284;BME280;56085;48.910;9.478;2022-12-10T02:44:12;97013.88;;;0.33;92.64
36284;BME280;56085;48.910;9.478;2022-12-10T02:46:40;97020.75;;;0.30;92.57
36284;BME280;56085;48.910;9.478;2022-12-10T02:49:06;97013.72;;;0.29;92.50
36284;BME280;56085;48.910;9.478;2022-12-10T02:51:32;97011.97;;;0.25;92.70
36284;BME280;56085;48.910;9.478;2022-12-10T02:54:01;97010.84;;;0.26;92.68
36284;BME280;56085;48.910;9.478;2022-12-10T02:56:32;97005.41;;;0.26;92.21
36284;BME280;56085;48.910;9.478;2022-12-10T02:59:03;97001.09;;;0.25;92.24
36284;BME280;56085;48.910;9.478;2022-12-10T03:01:47;97003.47;;;0.26;92.16
36284;BME280;56085;48.910;9.478;2022-12-10T03:04:21;97008.78;;;0.23;92.16
36284;BME280;56085;48.910;9.478;2022-12-10T03:06:51;97005.72;;;0.24;92.31
36284;BME280;56085;48.910;9.478;2022-12-10T03:10:00;97010.84;;;0.26;92.38
36284;BME280;56085;48.910;9.478;2022-12-10T03:12:08;96996.47;;;0.25;92.49
36284;BME280;56085;48.910;9.478;2022-12-10T03:14:35;96994.41;;;0.22;92.08
36284;BME280;56085;48.910;9.478;2022-12-10T03:17:02;96993.91;;;0.20;92.18
36284;BME280;56085;48.910;9.478;2022-12-10T03:19:43;96985.28;;;0.18;92.38
36284;BME280;56085;48.910;9.478;2022-12-10T03:22:09;96982.28;;;0.11;92.54
36284;BME280;56085;48.910;9.478;2022-12-10T03:24:36;96982.13;;;0.07;92.35
36284;BME280;56085;48.910;9.478;2022-12-10T03:27:03;96988.69;;;0.06;92.67
36284;BME280;56085;48.910;9.478;2022-12-10T03:29:36;96985.03;;;0.02;92.53
36284;BME280;56085;48.910;9.478;2022-12-10T03:32:02;96991.56;;;0.01;92.54
36284;BME280;56085;48.910;9.478;2022-12-10T03:34:28;96995.72;;;-0.02;92.38
36284;BME280;56085;48.910;9.478;2022-12-10T03:36:53;96989.66;;;0.02;92.49
36284;BME280;56085;48.910;9.478;2022-12-10T03:39:19;96992.84;;;0.04;92.39
36284;BME280;56085;48.910;9.478;2022-12-10T03:41:44;96989.34;;;0.03;92.45
36284;BME280;56085;48.910;9.478;2022-12-10T03:44:09;96991.72;;;0.05;92.86
36284;BME280;56085;48.910;9.478;2022-12-10T03:46:34;96995.25;;;0.05;92.33
36284;BME280;56085;48.910;9.478;2022-12-10T03:49:00;96990.13;;;0.04;92.70
36284;BME280;56085;48.910;9.478;2022-12-10T03:51:26;96985.81;;;0.03;92.76
36284;BME280;56085;48.910;9.478;2022-12-10T03:53:51;96986.13;;;0.01;92.67
36284;BME280;56085;48.910;9.478;2022-12-10T03:56:17;96975.91;;;-0.02;92.76
36284;BME280;56085;48.910;9.478;2022-12-10T03:58:42;96974.19;;;-0.07;92.97
36284;BME280;56085;48.910;9.478;2022-12-10T04:01:07;96969.84;;;-0.08;93.12
36284;BME280;56085;48.910;9.478;2022-12-10T04:03:36;96979.16;;;-0.09;93.02
36284;BME280;56085;48.910;9.478;2022-12-10T04:06:02;96985.69;;;-0.10;92.77
36284;BME280;56085;48.910;9.478;2022-12-10T04:08:28;96993.38;;;-0.21;93.40
36284;BME280;56085;48.910;9.478;2022-12-10T04:10:53;96992.59;;;-0.21;92.97
36284;BME280;56085;48.910;9.478;2022-12-10T04:13:18;96999.75;;;-0.16;92.92
36284;BME280;56085;48.910;9.478;2022-12-10T04:16:02;97003.44;;;-0.21;93.32
36284;BME280;56085;48.910;9.478;2022-12-10T04:18:46;97003.00;;;-0.23;93.67
36284;BME280;56085;48.910;9.478;2022-12-10T04:21:11;97007.59;;;-0.24;93.71
36284;BME280;56085;48.910;9.478;2022-12-10T04:23:55;97012.88;;;-0.19;93.68
36284;BME280;56085;48.910;9.478;2022-12-10T04:26:38;97019.91;;;-0.17;93.43
36284;BME280;56085;48.910;9.478;2022-12-10T04:29:20;97017.19;;;-0.17;93.46
36284;BME280;56085;48.910;9.478;2022-12-10T04:31:46;97013.03;;;-0.15;93.55
36284;BME280;56085;48.910;9.478;2022-12-10T04:34:11;97016.88;;;-0.16;93.34
36284;BME280;56085;48.910;9.478;2022-12-10T04:36:37;97019.09;;;-0.18;93.79
36284;BME280;56085;48.910;9.478;2022-12-10T04:39:02;97021.50;;;-0.16;93.61
36284;BME280;56085;48.910;9.478;2022-12-10T04:41:27;97029.19;;;-0.19;93.76
36284;BME280;56085;48.910;9.478;2022-12-10T04:43:53;97019.91;;;-0.17;93.47
36284;BME280;56085;48.910;9.478;2022-12-10T04:46:18;97033.00;;;-0.20;93.74
36284;BME280;56085;48.910;9.478;2022-12-10T04:48:43;97027.44;;;-0.23;93.53
36284;BME280;56085;48.910;9.478;2022-12-10T04:51:08;97032.38;;;-0.25;93.99
36284;BME280;56085;48.910;9.478;2022-12-10T04:53:34;97038.94;;;-0.26;93.88
36284;BME280;56085;48.910;9.478;2022-12-10T04:55:59;97029.97;;;-0.27;94.01
36284;BME280;56085;48.910;9.478;2022-12-10T04:58:26;97033.03;;;-0.28;93.83
36284;BME280;56085;48.910;9.478;2022-12-10T05:01:00;97042.28;;;-0.29;94.02
36284;BME280;56085;48.910;9.478;2022-12-10T05:03:25;97052.03;;;-0.28;93.91
36284;BME280;56085;48.910;9.478;2022-12-10T05:05:50;97045.00;;;-0.29;93.97
36284;BME280;56085;48.910;9.478;2022-12-10T05:08:16;97057.13;;;-0.27;93.86
36284;BME280;56085;48.910;9.478;2022-12-10T05:10:41;97051.25;;;-0.29;93.84
36284;BME280;56085;48.910;9.478;2022-12-10T05:13:06;97056.81;;;-0.25;94.08
36284;BME280;56085;48.910;9.478;2022-12-10T05:15:31;97055.25;;;-0.26;94.16
36284;BME280;56085;48.910;9.478;2022-12-10T05:17:56;97064.66;;;-0.24;94.00
36284;BME280;56085;48.910;9.478;2022-12-10T05:20:21;97069.94;;;-0.19;94.10
36284;BME280;56085;48.910;9.478;2022-12-10T05:22:47;97070.06;;;-0.24;93.92
36284;BME280;56085;48.910;9.478;2022-12-10T05:25:31;97056.66;;;-0.20;93.44
36284;BME280;56085;48.910;9.478;2022-12-10T05:28:16;97065.16;;;-0.22;93.93
36284;BME280;56085;48.910;9.478;2022-12-10T05:30:41;97052.66;;;-0.23;93.81
36284;BME280;56085;48.910;9.478;2022-12-10T05:33:06;97052.03;;;-0.20;93.69
36284;BME280;56085;48.910;9.478;2022-12-10T05:35:31;97052.81;;;-0.19;93.63
36284;BME280;56085;48.910;9.478;2022-12-10T05:37:57;97059.53;;;-0.16;93.79
36284;BME280;56085;48.910;9.478;2022-12-10T05:40:22;97060.50;;;-0.12;93.63
36284;BME280;56085;48.910;9.478;2022-12-10T05:42:47;97059.22;;;-0.15;93.85
36284;BME280;56085;48.910;9.478;2022-12-10T05:45:12;97064.63;;;-0.15;93.69
36284;BME280;56085;48.910;9.478;2022-12-10T05:47:37;97065.13;;;-0.13;93.81
36284;BME280;56085;48.910;9.478;2022-12-10T05:50:03;97062.88;;;-0.11;93.60
36284;BME280;56085;48.910;9.478;2022-12-10T05:52:28;97061.44;;;-0.08;93.75
36284;BME280;56085;48.910;9.478;2022-12-10T05:54:53;97065.28;;;-0.09;93.47
36284;BME280;56085;48.910;9.478;2022-12-10T05:57:18;97068.00;;;-0.09;93.75
36284;BME280;56085;48.910;9.478;2022-12-10T05:59:43;97072.16;;;-0.12;93.89
36284;BME280;56085;48.910;9.478;2022-12-10T06:02:09;97079.69;;;-0.09;93.70
36284;BME280;56085;48.910;9.478;2022-12-10T06:04:34;97076.47;;;-0.11;93.47
36284;BME280;56085;48.910;9.478;2022-12-10T06:06:59;97093.88;;;-0.12;93.72
36284;BME280;56085;48.910;9.478;2022-12-10T06:09:24;97087.19;;;-0.14;93.45
36284;BME280;56085;48.910;9.478;2022-12-10T06:11:49;97087.19;;;-0.14;93.49
36284;BME280;56085;48.910;9.478;2022-12-10T06:14:15;97091.16;;;-0.12;93.39
36284;BME280;56085;48.910;9.478;2022-12-10T06:16:40;97092.31;;;-0.13;93.24
36284;BME280;56085;48.910;9.478;2022-12-10T06:19:06;97094.84;;;-0.16;93.27
36284;BME280;56085;48.910;9.478;2022-12-10T06:21:31;97087.34;;;-0.20;93.42
36284;BME280;56085;48.910;9.478;2022-12-10T06:23:56;97084.81;;;-0.16;93.21
36284;BME280;56085;48.910;9.478;2022-12-10T06:26:23;97082.69;;;-0.19;93.08
36284;BME280;56085;48.910;9.478;2022-12-10T06:28:48;97081.25;;;-0.16;93.29
36284;BME280;56085;48.910;9.478;2022-12-10T06:31:14;97084.47;;;-0.14;93.27
36284;BME280;56085;48.910;9.478;2022-12-10T06:33:40;97089.59;;;-0.13;93.33
36284;BME280;56085;48.910;9.478;2022-12-10T06:36:06;97091.16;;;-0.12;93.40
36284;BME280;56085;48.910;9.478;2022-12-10T06:38:32;97095.03;;;-0.13;93.51
36284;BME280;56085;48.910;9.478;2022-12-10T06:40:57;97102.03;;;-0.12;93.38
36284;BME280;56085;48.910;9.478;2022-12-10T06:43:23;97104.13;;;-0.17;92.98
36284;BME280;56085;48.910;9.478;2022-12-10T06:45:48;97109.88;;;-0.19;93.59
36284;BME280;56085;48.910;9.478;2022-12-10T06:48:13;97114.19;;;-0.18;92.90
36284;BME280;56085;48.910;9.478;2022-12-10T06:50:38;97109.25;;;-0.16;93.14
36284;BME280;56085;48.910;9.478;2022-12-10T06:53:04;97116.59;;;-0.16;92.81
36284;BME280;56085;48.910;9.478;2022-12-10T06:55:29;97115.78;;;-0.17;92.80
36284;BME280;56085;48.910;9.478;2022-12-10T06:57:55;97115.00;;;-0.17;92.80
36284;BME280;56085;48.910;9.478;2022-12-10T07:00:21;97111.97;;;-0.16;92.70
36284;BME280;56085;48.910;9.478;2022-12-10T07:02:46;97108.75;;;-0.18;93.06
36284;BME280;56085;48.910;9.478;2022-12-10T07:05:11;97121.56;;;-0.19;92.56
36284;BME280;56085;48.910;9.478;2022-12-10T07:07:36;97111.47;;;-0.18;92.86
36284;BME280;56085;48.910;9.478;2022-12-10T07:10:02;97108.28;;;-0.20;93.22
36284;BME280;56085;48.910;9.478;2022-12-10T07:12:27;97113.72;;;-0.20;93.15
36284;BME280;56085;48.910;9.478;2022-12-10T07:14:52;97109.41;;;-0.21;93.16
36284;BME280;56085;48.910;9.478;2022-12-10T07:17:18;97117.53;;;-0.21;93.04
36284;BME280;56085;48.910;9.478;2022-12-10T07:19:43;97114.03;;;-0.22;93.03
36284;BME280;56085;48.910;9.478;2022-12-10T07:22:09;97126.16;;;-0.19;93.46
36284;BME280;56085;48.910;9.478;2022-12-10T07:24:34;97125.88;;;-0.17;93.22
36284;BME280;56085;48.910;9.478;2022-12-10T07:26:59;97123.16;;;-0.17;93.25
36284;BME280;56085;48.910;9.478;2022-12-10T07:29:24;97125.56;;;-0.16;93.42
36284;BME280;56085;48.910;9.478;2022-12-10T07:31:51;97126.34;;;-0.15;93.18
36284;BME280;56085;48.910;9.478;2022-12-10T07:34:16;97133.06;;;-0.13;93.52
36284;BME280;56085;48.910;9.478;2022-12-10T07:36:42;97130.81;;;-0.11;93.66
36284;BME280;56085;48.910;9.478;2022-12-10T07:39:08;97138.16;;;-0.11;93.66
36284;BME280;56085;48.910;9.478;2022-12-10T07:41:34;97131.00;;;-0.07;93.65
36284;BME280;56085;48.910;9.478;2022-12-10T07:44:01;97133.84;;;-0.04;93.43
36284;BME280;56085;48.910;9.478;2022-12-10T07:46:27;97139.75;;;-0.02;93.58
36284;BME280;56085;48.910;9.478;2022-12-10T07:48:53;97147.63;;;0.00;93.66
36284;BME280;56085;48.910;9.478;2022-12-10T07:51:19;97143.28;;;-0.01;93.37
36284;BME280;56085;48.910;9.478;2022-12-10T07:53:45;97158.94;;;0.02;93.40
36284;BME280;56085;48.910;9.478;2022-12-10T07:56:10;97155.44;;;0.02;93.53
36284;BME280;56085;48.910;9.478;2022-12-10T07:58:36;97159.41;;;0.04;93.40
36284;BME280;56085;48.910;9.478;2022-12-10T08:01:07;97162.31;;;0.08;93.30
36284;BME280;56085;48.910;9.478;2022-12-10T08:03:33;97165.81;;;0.08;93.54
36284;BME280;56085;48.910;9.478;2022-12-10T08:06:05;97179.25;;;0.13;93.28
36284;BME280;56085;48.910;9.478;2022-12-10T08:08:32;97172.69;;;0.14;93.38
36284;BME280;56085;48.910;9.478;2022-12-10T08:11:01;97176.03;;;0.11;93.17
36284;BME280;56085;48.910;9.478;2022-12-10T08:13:26;97181.47;;;0.03;92.92
36284;BME280;56085;48.910;9.478;2022-12-10T08:15:52;97176.53;;;0.13;92.92
36284;BME280;56085;48.910;9.478;2022-12-10T08:18:17;97177.47;;;0.17;92.96
36284;BME280;56085;48.910;9.478;2022-12-10T08:20:42;97177.00;;;0.24;92.61
36284;BME280;56085;48.910;9.478;2022-12-10T08:23:08;97179.91;;;0.28;92.69
36284;BME280;56085;48.910;9.478;2022-12-10T08:25:33;97176.22;;;0.32;92.64
36284;BME280;56085;48.910;9.478;2022-12-10T08:27:58;97177.16;;;0.37;92.25
36284;BME280;56085;48.910;9.478;2022-12-10T08:30:24;97177.16;;;0.37;92.53
36284;BME280;56085;48.910;9.478;2022-12-10T08:32:50;97180.03;;;0.40;92.07
36284;BME280;56085;48.910;9.478;2022-12-10T08:35:15;97187.22;;;0.45;92.33
36284;BME280;56085;48.910;9.478;2022-12-10T08:37:41;97197.13;;;0.41;92.26
36284;BME280;56085;48.910;9.478;2022-12-10T08:40:06;97198.59;;;0.47;91.87
36284;BME280;56085;48.910;9.478;2022-12-10T08:42:31;97202.09;;;0.47;91.98
36284;BME280;56085;48.910;9.478;2022-12-10T08:44:57;97197.31;;;0.53;91.67
36284;BME280;56085;48.910;9.478;2022-12-10T08:47:22;97199.06;;;0.58;91.13
36284;BME280;56085;48.910;9.478;2022-12-10T08:49:47;97200.47;;;0.64;91.08
36284;BME280;56085;48.910;9.478;2022-12-10T08:52:12;97197.75;;;0.73;91.26
36284;BME280;56085;48.910;9.478;2022-12-10T08:54:38;97183.31;;;0.81;90.99
36284;BME280;56085;48.910;9.478;2022-12-10T08:57:03;97177.69;;;0.86;91.04
36284;BME280;56085;48.910;9.478;2022-12-10T08:59:28;97177.69;;;0.86;90.75
36284;BME280;56085;48.910;9.478;2022-12-10T09:01:53;97183.44;;;0.93;90.64
36284;BME280;56085;48.910;9.478;2022-12-10T09:04:18;97179.44;;;0.99;90.55
36284;BME280;56085;48.910;9.478;2022-12-10T09:06:44;97180.56;;;0.98;90.38
36284;BME280;56085;48.910;9.478;2022-12-10T09:09:09;97178.13;;;1.06;90.12
36284;BME280;56085;48.910;9.478;2022-12-10T09:11:34;97190.13;;;1.04;90.04
36284;BME280;56085;48.910;9.478;2022-12-10T09:14:00;97180.84;;;1.06;89.73
36284;BME280;56085;48.910;9.478;2022-12-10T09:16:35;97196.84;;;1.07;89.21
36284;BME280;56085;48.910;9.478;2022-12-10T09:19:01;97193.50;;;1.01;89.03
36284;BME280;56085;48.910;9.478;2022-12-10T09:21:26;97201.19;;;1.08;88.60
36284;BME280;56085;48.910;9.478;2022-12-10T09:23:51;97204.53;;;1.05;87.98
36284;BME280;56085;48.910;9.478;2022-12-10T09:26:17;97202.91;;;1.13;87.68
36284;BME280;56085;48.910;9.478;2022-12-10T09:28:43;97203.41;;;1.06;87.25
36284;BME280;56085;48.910;9.478;2022-12-10T09:31:08;97195.53;;;1.13;86.63
36284;BME280;56085;48.910;9.478;2022-12-10T09:33:34;97200.94;;;1.22;86.48
36284;BME280;56085;48.910;9.478;2022-12-10T09:36:01;97203.97;;;1.29;86.24
36284;BME280;56085;48.910;9.478;2022-12-10T09:38:27;97207.03;;;1.28;86.04
36284;BME280;56085;48.910;9.478;2022-12-10T09:43:32;97202.53;;;1.32;85.59
36284;BME280;56085;48.910;9.478;2022-12-10T09:51:10;97195.59;;;1.43;84.63
36284;BME280;56085;48.910;9.478;2022-12-10T09:53:38;97197.44;;;1.51;84.28
36284;BME280;56085;48.910;9.478;2022-12-10T09:56:04;97203.38;;;1.53;84.12
36284;BME280;56085;48.910;9.478;2022-12-10T09:58:30;97204.22;;;1.45;83.80
36284;BME280;56085;48.910;9.478;2022-12-10T10:01:00;97208.88;;;1.45;83.55
36284;BME280;56085;48.910;9.478;2022-12-10T10:03:25;97198.78;;;1.45;83.06
36284;BME280;56085;48.910;9.478;2022-12-10T10:05:53;97201.78;;;1.52;83.00
36284;BME280;56085;48.910;9.478;2022-12-10T10:10:48;97202.84;;;1.60;82.73
36284;BME280;56085;48.910;9.478;2022-12-10T10:15:49;97195.81;;;1.59;82.39
36284;BME280;56085;48.910;9.478;2022-12-10T10:20:56;97204.22;;;1.45;81.98
36284;BME280;56085;48.910;9.478;2022-12-10T10:23:22;97208.03;;;1.53;81.91
36284;BME280;56085;48.910;9.478;2022-12-10T10:25:47;97213.78;;;1.51;81.70
36284;BME280;56085;48.910;9.478;2022-12-10T10:28:18;97211.88;;;1.52;81.62
36284;BME280;56085;48.910;9.478;2022-12-10T10:30:43;97215.06;;;1.54;81.52
36284;BME280;56085;48.910;9.478;2022-12-10T10:33:10;97214.25;;;1.62;81.32
36284;BME280;56085;48.910;9.478;2022-12-10T10:36:09;97206.53;;;1.64;80.87
36284;BME280;56085;48.910;9.478;2022-12-10T10:38:28;97207.47;;;1.68;80.51
36284;BME280;56085;48.910;9.478;2022-12-10T10:40:55;97200.38;;;1.76;79.91
36284;BME280;56085;48.910;9.478;2022-12-10T10:43:25;97209.31;;;1.77;80.19
36284;BME280;56085;48.910;9.478;2022-12-10T10:45:51;97210.00;;;1.73;79.85
36284;BME280;56085;48.910;9.478;2022-12-10T10:48:22;97209.59;;;1.84;79.17
36284;BME280;56085;48.910;9.478;2022-12-10T10:51:33;97207.97;;;1.91;79.57
36284;BME280;56085;48.910;9.478;2022-12-10T10:53:44;97203.50;;;1.87;79.14
36284;BME280;56085;48.910;9.478;2022-12-10T10:56:10;97203.66;;;1.90;79.01
36284;BME280;56085;48.910;9.478;2022-12-10T10:58:37;97208.81;;;1.83;78.64
36284;BME280;56085;48.910;9.478;2022-12-10T11:01:11;97202.19;;;1.93;78.22
36284;BME280;56085;48.910;9.478;2022-12-10T11:03:36;97200.41;;;1.97;77.77
36284;BME280;56085;48.910;9.478;2022-12-10T11:06:09;97190.28;;;2.19;77.59
36284;BME280;56085;48.910;9.478;2022-12-10T11:08:37;97199.31;;;2.32;77.43
36284;BME280;56085;48.910;9.478;2022-12-10T11:11:05;97194.47;;;2.37;77.12
36284;BME280;56085;48.910;9.478;2022-12-10T11:13:32;97205.50;;;2.41;76.77
36284;BME280;56085;48.910;9.478;2022-12-10T11:15:59;97211.16;;;2.36;76.85
36284;BME280;56085;48.910;9.478;2022-12-10T11:18:30;97206.84;;;2.35;76.40
36284;BME280;56085;48.910;9.478;2022-12-10T11:20:57;97214.91;;;2.31;76.11
36284;BME280;56085;48.910;9.478;2022-12-10T11:23:22;97209.44;;;2.31;75.26
36284;BME280;56085;48.910;9.478;2022-12-10T11:26:03;97211.34;;;2.31;75.55
36284;BME280;56085;48.910;9.478;2022-12-10T11:28:47;97222.81;;;2.24;75.20
36284;BME280;56085;48.910;9.478;2022-12-10T11:34:06;97223.88;;;2.11;74.17
36284;BME280;56085;48.910;9.478;2022-12-10T11:36:48;97227.59;;;2.06;74.19
36284;BME280;56085;48.910;9.478;2022-12-10T11:39:27;97232.41;;;2.09;74.13
36284;BME280;56085;48.910;9.478;2022-12-10T11:45:17;97229.84;;;2.04;74.08
36284;BME280;56085;48.910;9.478;2022-12-10T12:00:16;97230.72;;;2.17;74.20
36284;BME280;56085;48.910;9.478;2022-12-10T12:05:38;97220.09;;;2.24;74.70
36284;BME280;56085;48.910;9.478;2022-12-10T12:08:19;97227.00;;;2.21;74.24
36284;BME280;56085;48.910;9.478;2022-12-10T12:13:18;97227.22;;;2.16;74.28
36284;BME280;56085;48.910;9.478;2022-12-10T12:18:16;97233.97;;;2.10;74.00
36284;BME280;56085;48.910;9.478;2022-12-10T12:20:44;97235.47;;;2.07;73.69
36284;BME280;56085;48.910;9.478;2022-12-10T12:23:13;97232.72;;;2.07;73.77
36284;BME280;56085;48.910;9.478;2022-12-10T12:25:41;97231.19;;;1.98;73.72
36284;BME280;56085;48.910;9.478;2022-12-10T12:30:36;97230.91;;;1.90;73.58
36284;BME280;56085;48.910;9.478;2022-12-10T12:35:48;97239.03;;;1.69;73.58
36284;BME280;56085;48.910;9.478;2022-12-10T12:40:47;97241.75;;;1.69;73.82
36284;BME280;56085;48.910;9.478;2022-12-10T12:43:14;97252.53;;;1.66;73.81
36284;BME280;56085;48.910;9.478;2022-12-10T12:45:43;97251.72;;;1.65;73.85
36284;BME280;56085;48.910;9.478;2022-12-10T12:48:19;97250.56;;;1.66;73.72
36284;BME280;56085;48.910;9.478;2022-12-10T12:50:53;97263.66;;;1.82;74.01
36284;BME280;56085;48.910;9.478;2022-12-10T12:53:19;97258.81;;;1.87;73.57
36284;BME280;56085;48.910;9.478;2022-12-10T12:55:47;97252.56;;;1.87;73.75
36284;BME280;56085;48.910;9.478;2022-12-10T13:00:42;97265.06;;;1.88;73.61
36284;BME280;56085;48.910;9.478;2022-12-10T13:05:38;97261.06;;;1.85;73.47
36284;BME280;56085;48.910;9.478;2022-12-10T13:10:45;97280.22;;;1.68;72.61
36284;BME280;56085;48.910;9.478;2022-12-10T13:13:34;97283.09;;;1.71;72.62
36284;BME280;56085;48.910;9.478;2022-12-10T13:18:43;97280.56;;;1.66;72.83
36284;BME280;56085;48.910;9.478;2022-12-10T13:23:53;97290.63;;;1.74;73.36
36284;BME280;56085;48.910;9.478;2022-12-10T13:26:25;97293.53;;;1.69;72.92
36284;BME280;56085;48.910;9.478;2022-12-10T13:28:53;97301.91;;;1.64;72.83
36284;BME280;56085;48.910;9.478;2022-12-10T13:31:21;97315.38;;;1.52;72.94
36284;BME280;56085;48.910;9.478;2022-12-10T13:36:26;97309.13;;;1.60;72.84
36284;BME280;56085;48.910;9.478;2022-12-10T13:41:32;97315.69;;;1.59;72.81
36284;BME280;56085;48.910;9.478;2022-12-10T13:46:59;97315.25;;;1.48;73.25
36284;BME280;56085;48.910;9.478;2022-12-10T13:49:28;97322.13;;;1.46;72.70
36284;BME280;56085;48.910;9.478;2022-12-10T13:52:01;97314.44;;;1.56;72.88
36284;BME280;56085;48.910;9.478;2022-12-10T13:59:37;97328.75;;;1.45;73.48
36284;BME280;56085;48.910;9.478;2022-12-10T14:07:30;97345.44;;;1.26;72.82
36284;BME280;56085;48.910;9.478;2022-12-10T14:09:56;97343.34;;;1.22;73.28
36284;BME280;56085;48.910;9.478;2022-12-10T14:12:30;97345.59;;;1.20;73.34
36284;BME280;56085;48.910;9.478;2022-12-10T14:15:03;97351.69;;;1.17;73.40
36284;BME280;56085;48.910;9.478;2022-12-10T14:17:33;97354.09;;;1.19;73.84
36284;BME280;56085;48.910;9.478;2022-12-10T14:19:59;97355.84;;;1.15;73.95
36284;BME280;56085;48.910;9.478;2022-12-10T14:22:37;97361.94;;;1.12;73.88
36284;BME280;56085;48.910;9.478;2022-12-10T14:25:04;97364.81;;;1.07;74.00
36284;BME280;56085;48.910;9.478;2022-12-10T14:27:32;97363.69;;;1.08;74.02
36284;BME280;56085;48.910;9.478;2022-12-10T14:29:59;97365.13;;;1.05;73.70
36284;BME280;56085;48.910;9.478;2022-12-10T14:32:27;97364.81;;;0.98;74.04
36284;BME280;56085;48.910;9.478;2022-12-10T14:34:55;97367.88;;;0.96;74.02
36284;BME280;56085;48.910;9.478;2022-12-10T14:37:23;97375.88;;;0.93;73.98
36284;BME280;56085;48.910;9.478;2022-12-10T14:39:49;97375.72;;;0.89;73.79
36284;BME280;56085;48.910;9.478;2022-12-10T14:42:14;97361.63;;;0.87;73.99
36284;BME280;56085;48.910;9.478;2022-12-10T14:44:41;97369.97;;;0.91;74.04